sensor_id;sensor_type;location;lat;lon;timestamp;pressure;altitude;pressure_sealevel;temperature;humidity
39681;BME280;26327;42.550;23.120;2022-08-19T08:05:59;92731.63;;;25.56;63.03
39681;BME280;26327;42.550;23.120;2022-08-19T08:08:42;92778.44;;;26.12;63.94
39681;BME280;26327;42.550;23.120;2022-08-19T08:11:18;92759.13;;;25.91;63.22
39681;BME280;26327;42.550;23.120;2022-08-19T08:13:44;92783.97;;;26.20;65.35
39681;BME280;26327;42.550;23.120;2022-08-19T08:16:10;92771.97;;;26.23;61.04
39681;BME280;26327;42.550;23.120;2022-08-19T08:18:36;92709.31;;;25.96;66.43
39681;BME280;26327;42.550;23.120;2022-08-19T08:21:07;92767.47;;;26.57;60.37
39681;BME280;26327;42.550;23.120;2022-08-19T08:23:33;92759.13;;;26.64;60.28
39681;BME280;26327;42.550;23.120;2022-08-19T08:25:58;92769.91;;;26.54;61.20
39681;BME280;26327;42.550;23.120;2022-08-19T08:28:26;92751.53;;;26.47;58.03
39681;BME280;26327;42.550;23.120;2022-08-19T08:30:52;92713.59;;;26.60;59.15
39681;BME280;26327;42.550;23.120;2022-08-19T08:33:22;92763.03;;;27.06;58.21
39681;BME280;26327;42.550;23.120;2022-08-19T08:35:49;92767.13;;;26.98;57.59
39681;BME280;26327;42.550;23.120;2022-08-19T08:38:15;92747.59;;;27.03;58.34
39681;BME280;26327;42.550;23.120;2022-08-19T08:40:49;92733.25;;;26.99;57.98
39681;BME280;26327;42.550;23.120;2022-08-19T08:43:32;92733.59;;;27.35;53.68
39681;BME280;26327;42.550;23.120;2022-08-19T08:46:08;92726.09;;;27.37;57.08
39681;BME280;26327;42.550;23.120;2022-08-19T08:48:44;92737.13;;;27.54;56.42
39681;BME280;26327;42.550;23.120;2022-08-19T08:51:20;92736.72;;;27.42;58.91
39681;BME280;26327;42.550;23.120;2022-08-19T08:53:49;92754.63;;;27.84;53.92
39681;BME280;26327;42.550;23.120;2022-08-19T08:56:16;92697.63;;;27.75;54.78
39681;BME280;26327;42.550;23.120;2022-08-19T08:59:05;92745.31;;;28.00;56.17
39681;BME280;26327;42.550;23.120;2022-08-19T09:01:35;92645.69;;;27.67;54.81
39681;BME280;26327;42.550;23.120;2022-08-19T09:04:04;92726.81;;;28.41;54.05
39681;BME280;26327;42.550;23.120;2022-08-19T09:06:42;92656.13;;;27.82;54.50
39681;BME280;26327;42.550;23.120;2022-08-19T09:09:30;92746.19;;;28.66;54.88
39681;BME280;26327;42.550;23.120;2022-08-19T09:14:51;92745.69;;;28.77;47.65
39681;BME280;26327;42.550;23.120;2022-08-19T09:17:22;92671.69;;;28.45;51.99
39681;BME280;26327;42.550;23.120;2022-08-19T09:22:33;92719.25;;;28.76;49.95
39681;BME280;26327;42.550;23.120;2022-08-19T09:24:59;92673.31;;;28.60;49.27
39681;BME280;26327;42.550;23.120;2022-08-19T09:27:26;92719.13;;;29.13;50.95
39681;BME280;26327;42.550;23.120;2022-08-19T09:29:52;92675.03;;;29.25;50.44
39681;BME280;26327;42.550;23.120;2022-08-19T09:32:19;92685.22;;;29.64;47.72
39681;BME280;26327;42.550;23.120;2022-08-19T09:34:45;92667.78;;;29.53;48.85
39681;BME280;26327;42.550;23.120;2022-08-19T09:37:10;92650.94;;;29.52;46.85
39681;BME280;26327;42.550;23.120;2022-08-19T09:39:38;92715.78;;;30.35;45.60
39681;BME280;26327;42.550;23.120;2022-08-19T09:42:06;92711.31;;;30.53;41.51
39681;BME280;26327;42.550;23.120;2022-08-19T09:44:37;92728.00;;;30.50;43.20
39681;BME280;26327;42.550;23.120;2022-08-19T09:47:02;92684.41;;;30.35;42.62
39681;BME280;26327;42.550;23.120;2022-08-19T09:49:28;92710.22;;;30.54;44.37
39681;BME280;26327;42.550;23.120;2022-08-19T09:51:54;92689.84;;;30.53;43.27
39681;BME280;26327;42.550;23.120;2022-08-19T09:54:21;92695.34;;;30.70;44.54
39681;BME280;26327;42.550;23.120;2022-08-19T09:56:46;92681.06;;;30.83;43.63
39681;BME280;26327;42.550;23.120;2022-08-19T09:59:12;92671.78;;;30.89;45.42
39681;BME280;26327;42.550;23.120;2022-08-19T10:01:37;92616.69;;;30.83;43.30
39681;BME280;26327;42.550;23.120;2022-08-19T10:04:04;92672.91;;;31.45;40.91
39681;BME280;26327;42.550;23.120;2022-08-19T10:06:35;92703.25;;;31.54;42.26
39681;BME280;26327;42.550;23.120;2022-08-19T10:09:01;92685.66;;;31.79;37.48
39681;BME280;26327;42.550;23.120;2022-08-19T10:11:29;92657.84;;;31.75;36.07
39681;BME280;26327;42.550;23.120;2022-08-19T10:13:55;92649.25;;;31.56;38.17
39681;BME280;26327;42.550;23.120;2022-08-19T10:16:22;92658.00;;;31.70;37.74
39681;BME280;26327;42.550;23.120;2022-08-19T10:18:49;92694.03;;;31.78;38.56
39681;BME280;26327;42.550;23.120;2022-08-19T10:21:19;92519.34;;;31.09;36.16
39681;BME280;26327;42.550;23.120;2022-08-19T10:23:48;92603.63;;;31.82;35.44
39681;BME280;26327;42.550;23.120;2022-08-19T10:26:20;92689.09;;;32.58;34.05
39681;BME280;26327;42.550;23.120;2022-08-19T10:28:46;92659.72;;;32.44;37.31
39681;BME280;26327;42.550;23.120;2022-08-19T10:31:15;92680.66;;;32.94;35.84
39681;BME280;26327;42.550;23.120;2022-08-19T10:33:43;92635.47;;;33.08;34.20
39681;BME280;26327;42.550;23.120;2022-08-19T10:36:11;92670.56;;;34.62;31.36
39681;BME280;26327;42.550;23.120;2022-08-19T10:38:37;92662.00;;;35.30;29.47
39681;BME280;26327;42.550;23.120;2022-08-19T10:41:12;92671.06;;;36.51;27.31
39681;BME280;26327;42.550;23.120;2022-08-19T10:43:39;92584.44;;;36.35;28.02
39681;BME280;26327;42.550;23.120;2022-08-19T10:46:07;92624.19;;;36.91;28.33
39681;BME280;26327;42.550;23.120;2022-08-19T10:48:33;92660.34;;;36.54;29.05
39681;BME280;26327;42.550;23.120;2022-08-19T10:50:59;92669.63;;;37.29;28.29
39681;BME280;26327;42.550;23.120;2022-08-19T10:53:43;92673.31;;;38.22;29.32
39681;BME280;26327;42.550;23.120;2022-08-19T10:56:09;92578.47;;;37.71;27.04
39681;BME280;26327;42.550;23.120;2022-08-19T10:58:53;92641.84;;;37.83;25.25
39681;BME280;26327;42.550;23.120;2022-08-19T11:01:19;92617.47;;;37.67;29.25
39681;BME280;26327;42.550;23.120;2022-08-19T11:03:44;92609.91;;;38.11;24.92
39681;BME280;26327;42.550;23.120;2022-08-19T11:06:11;92632.50;;;39.19;23.99
39681;BME280;26327;42.550;23.120;2022-08-19T11:08:38;92607.25;;;39.94;24.24
39681;BME280;26327;42.550;23.120;2022-08-19T11:11:05;92662.78;;;41.20;25.42
39681;BME280;26327;42.550;23.120;2022-08-19T11:13:35;92639.72;;;41.58;22.87
39681;BME280;26327;42.550;23.120;2022-08-19T11:16:07;92663.06;;;41.56;23.17
39681;BME280;26327;42.550;23.120;2022-08-19T11:18:43;92657.00;;;40.88;23.10
39681;BME280;26327;42.550;23.120;2022-08-19T11:21:11;92652.25;;;39.16;24.61
39681;BME280;26327;42.550;23.120;2022-08-19T11:23:37;92544.75;;;38.50;24.53
39681;BME280;26327;42.550;23.120;2022-08-19T11:26:03;92565.03;;;37.59;25.92
39681;BME280;26327;42.550;23.120;2022-08-19T11:28:29;92652.72;;;39.44;23.37
39681;BME280;26327;42.550;23.120;2022-08-19T11:30:54;92581.34;;;39.01;22.45
39681;BME280;26327;42.550;23.120;2022-08-19T11:33:20;92567.81;;;40.81;23.65
39681;BME280;26327;42.550;23.120;2022-08-19T11:35:45;92517.91;;;40.00;20.88
39681;BME280;26327;42.550;23.120;2022-08-19T11:38:10;92528.94;;;40.47;20.32
39681;BME280;26327;42.550;23.120;2022-08-19T11:40:59;92641.84;;;40.91;21.14
39681;BME280;26327;42.550;23.120;2022-08-19T11:43:26;92639.28;;;42.07;19.49
39681;BME280;26327;42.550;23.120;2022-08-19T11:45:55;92644.84;;;42.22;19.52
39681;BME280;26327;42.550;23.120;2022-08-19T11:48:22;92530.94;;;42.19;20.78
39681;BME280;26327;42.550;23.120;2022-08-19T11:50:49;92586.88;;;42.67;19.36
39681;BME280;26327;42.550;23.120;2022-08-19T11:53:15;92603.72;;;42.91;20.59
39681;BME280;26327;42.550;23.120;2022-08-19T11:55:41;92617.84;;;43.32;18.93
39681;BME280;26327;42.550;23.120;2022-08-19T11:58:07;92576.75;;;42.71;18.95
39681;BME280;26327;42.550;23.120;2022-08-19T12:00:34;92592.38;;;43.95;19.70
39681;BME280;26327;42.550;23.120;2022-08-19T12:03:00;92622.16;;;43.33;18.82
39681;BME280;26327;42.550;23.120;2022-08-19T12:05:26;92570.16;;;43.72;17.70
39681;BME280;26327;42.550;23.120;2022-08-19T12:07:51;92571.34;;;43.11;18.46
39681;BME280;26327;42.550;23.120;2022-08-19T12:10:17;92567.41;;;43.79;18.03
39681;BME280;26327;42.550;23.120;2022-08-19T12:12:42;92581.09;;;43.65;16.57
39681;BME280;26327;42.550;23.120;2022-08-19T12:15:10;92543.56;;;43.62;16.87
39681;BME280;26327;42.550;23.120;2022-08-19T12:17:36;92614.31;;;43.39;20.30
39681;BME280;26327;42.550;23.120;2022-08-19T12:20:04;92586.13;;;43.91;17.73
39681;BME280;26327;42.550;23.120;2022-08-19T12:22:30;92590.50;;;43.53;18.56
39681;BME280;26327;42.550;23.120;2022-08-19T12:24:55;92537.34;;;43.44;20.56
39681;BME280;26327;42.550;23.120;2022-08-19T12:27:21;92510.34;;;43.71;18.34
39681;BME280;26327;42.550;23.120;2022-08-19T12:29:46;92605.34;;;44.79;17.47
39681;BME280;26327;42.550;23.120;2022-08-19T12:32:12;92568.69;;;44.58;17.65
39681;BME280;26327;42.550;23.120;2022-08-19T12:34:38;92587.56;;;44.35;16.74
39681;BME280;26327;42.550;23.120;2022-08-19T12:37:05;92593.09;;;45.05;17.30
39681;BME280;26327;42.550;23.120;2022-08-19T12:39:36;92604.53;;;45.48;17.28
39681;BME280;26327;42.550;23.120;2022-08-19T12:42:02;92580.31;;;45.36;18.67
39681;BME280;26327;42.550;23.120;2022-08-19T12:44:27;92597.09;;;44.89;15.52
39681;BME280;26327;42.550;23.120;2022-08-19T12:46:54;92573.19;;;44.13;16.13
39681;BME280;26327;42.550;23.120;2022-08-19T12:49:19;92554.97;;;45.17;16.36
39681;BME280;26327;42.550;23.120;2022-08-19T12:51:44;92577.28;;;45.23;15.83
39681;BME280;26327;42.550;23.120;2022-08-19T12:54:11;92564.03;;;44.41;15.96
39681;BME280;26327;42.550;23.120;2022-08-19T12:56:36;92582.19;;;43.96;17.15
39681;BME280;26327;42.550;23.120;2022-08-19T12:59:02;92552.47;;;44.05;17.24
39681;BME280;26327;42.550;23.120;2022-08-19T13:01:28;92581.16;;;44.67;15.94
39681;BME280;26327;42.550;23.120;2022-08-19T13:03:58;92572.88;;;45.36;16.25
39681;BME280;26327;42.550;23.120;2022-08-19T13:06:23;92540.28;;;44.97;17.37
39681;BME280;26327;42.550;23.120;2022-08-19T13:08:49;92491.84;;;45.25;17.09
39681;BME280;26327;42.550;23.120;2022-08-19T13:11:17;92533.88;;;46.27;15.58
39681;BME280;26327;42.550;23.120;2022-08-19T13:13:46;92563.38;;;45.86;15.86
39681;BME280;26327;42.550;23.120;2022-08-19T13:16:12;92562.88;;;46.93;15.42
39681;BME280;26327;42.550;23.120;2022-08-19T13:18:40;92563.25;;;46.37;15.71
39681;BME280;26327;42.550;23.120;2022-08-19T13:21:07;92514.72;;;46.54;15.00
39681;BME280;26327;42.550;23.120;2022-08-19T13:23:34;92519.81;;;47.33;13.47
39681;BME280;26327;42.550;23.120;2022-08-19T13:26:03;92503.06;;;46.73;13.46
39681;BME280;26327;42.550;23.120;2022-08-19T13:28:29;92519.31;;;46.30;15.72
39681;BME280;26327;42.550;23.120;2022-08-19T13:31:18;92520.53;;;47.14;15.00
39681;BME280;26327;42.550;23.120;2022-08-19T13:34:02;92542.91;;;46.28;16.18
39681;BME280;26327;42.550;23.120;2022-08-19T13:36:28;92556.94;;;46.40;15.34
39681;BME280;26327;42.550;23.120;2022-08-19T13:38:54;92520.84;;;46.35;15.08
39681;BME280;26327;42.550;23.120;2022-08-19T13:41:19;92495.41;;;46.00;14.91
39681;BME280;26327;42.550;23.120;2022-08-19T13:43:45;92514.88;;;46.44;15.33
39681;BME280;26327;42.550;23.120;2022-08-19T13:46:11;92555.09;;;46.27;16.86
39681;BME280;26327;42.550;23.120;2022-08-19T13:48:40;92556.00;;;46.51;15.72
39681;BME280;26327;42.550;23.120;2022-08-19T13:51:08;92466.59;;;45.03;16.71
39681;BME280;26327;42.550;23.120;2022-08-19T13:53:39;92504.69;;;45.35;16.80
39681;BME280;26327;42.550;23.120;2022-08-19T13:56:06;92532.63;;;45.19;16.23
39681;BME280;26327;42.550;23.120;2022-08-19T13:58:32;92523.38;;;45.02;17.26
39681;BME280;26327;42.550;23.120;2022-08-19T14:00:57;92517.97;;;44.95;17.18
39681;BME280;26327;42.550;23.120;2022-08-19T14:03:24;92519.97;;;45.36;16.25
39681;BME280;26327;42.550;23.120;2022-08-19T14:05:50;92533.63;;;44.91;16.92
39681;BME280;26327;42.550;23.120;2022-08-19T14:08:16;92524.06;;;45.13;17.21
39681;BME280;26327;42.550;23.120;2022-08-19T14:10:43;92477.16;;;45.04;16.86
39681;BME280;26327;42.550;23.120;2022-08-19T14:13:12;92536.84;;;45.75;15.79
39681;BME280;26327;42.550;23.120;2022-08-19T14:15:38;92522.66;;;44.91;17.25
39681;BME280;26327;42.550;23.120;2022-08-19T14:18:03;92522.94;;;45.07;17.36
39681;BME280;26327;42.550;23.120;2022-08-19T14:20:29;92450.66;;;44.87;18.91
39681;BME280;26327;42.550;23.120;2022-08-19T14:22:55;92519.09;;;45.01;16.33
39681;BME280;26327;42.550;23.120;2022-08-19T14:25:23;92502.63;;;45.46;16.05
39681;BME280;26327;42.550;23.120;2022-08-19T14:27:49;92538.94;;;46.02;16.57
39681;BME280;26327;42.550;23.120;2022-08-19T14:30:18;92461.28;;;44.78;15.97
39681;BME280;26327;42.550;23.120;2022-08-19T14:32:44;92515.50;;;45.53;17.24
39681;BME280;26327;42.550;23.120;2022-08-19T14:35:11;92472.97;;;44.82;16.35
39681;BME280;26327;42.550;23.120;2022-08-19T14:37:38;92506.03;;;45.16;17.57
39681;BME280;26327;42.550;23.120;2022-08-19T14:40:05;92531.13;;;45.11;17.26
39681;BME280;26327;42.550;23.120;2022-08-19T14:42:31;92474.06;;;44.47;16.96
39681;BME280;26327;42.550;23.120;2022-08-19T14:44:58;92509.41;;;44.82;16.82
39681;BME280;26327;42.550;23.120;2022-08-19T14:47:24;92475.19;;;44.46;17.30
39681;BME280;26327;42.550;23.120;2022-08-19T14:49:50;92475.56;;;44.55;16.47
39681;BME280;26327;42.550;23.120;2022-08-19T14:52:15;92473.56;;;45.11;16.88
39681;BME280;26327;42.550;23.120;2022-08-19T14:54:41;92437.59;;;45.43;16.08
39681;BME280;26327;42.550;23.120;2022-08-19T14:57:07;92467.13;;;45.69;17.34
39681;BME280;26327;42.550;23.120;2022-08-19T14:59:34;92463.31;;;45.56;15.97
39681;BME280;26327;42.550;23.120;2022-08-19T15:02:00;92517.09;;;45.88;19.07
39681;BME280;26327;42.550;23.120;2022-08-19T15:04:25;92442.31;;;45.39;15.86
39681;BME280;26327;42.550;23.120;2022-08-19T15:06:51;92491.50;;;45.64;17.85
39681;BME280;26327;42.550;23.120;2022-08-19T15:09:16;92484.91;;;45.54;17.24
39681;BME280;26327;42.550;23.120;2022-08-19T15:11:42;92503.16;;;45.71;16.53
39681;BME280;26327;42.550;23.120;2022-08-19T15:14:07;92508.84;;;45.88;15.08
39681;BME280;26327;42.550;23.120;2022-08-19T15:16:35;92465.41;;;45.79;19.07
39681;BME280;26327;42.550;23.120;2022-08-19T15:19:01;92516.09;;;45.30;22.92
39681;BME280;26327;42.550;23.120;2022-08-19T15:21:28;92509.44;;;45.31;18.37
39681;BME280;26327;42.550;23.120;2022-08-19T15:23:56;92511.06;;;44.69;17.53
39681;BME280;26327;42.550;23.120;2022-08-19T15:26:22;92476.22;;;44.70;19.80
39681;BME280;26327;42.550;23.120;2022-08-19T15:28:49;92450.16;;;43.71;19.72
39681;BME280;26327;42.550;23.120;2022-08-19T15:31:18;92445.56;;;43.21;20.57
39681;BME280;26327;42.550;23.120;2022-08-19T15:33:43;92478.31;;;42.39;21.25
39681;BME280;26327;42.550;23.120;2022-08-19T15:36:10;92503.75;;;42.72;24.20
39681;BME280;26327;42.550;23.120;2022-08-19T15:38:38;92500.63;;;42.63;23.60
39681;BME280;26327;42.550;23.120;2022-08-19T15:41:04;92504.44;;;42.19;25.18
39681;BME280;26327;42.550;23.120;2022-08-19T15:43:51;92435.44;;;41.35;27.09
39681;BME280;26327;42.550;23.120;2022-08-19T15:46:19;92467.03;;;40.85;29.87
39681;BME280;26327;42.550;23.120;2022-08-19T15:48:47;92448.28;;;40.32;32.51
39681;BME280;26327;42.550;23.120;2022-08-19T15:51:12;92442.34;;;39.52;32.73
39681;BME280;26327;42.550;23.120;2022-08-19T15:53:39;92492.13;;;39.03;34.72
39681;BME280;26327;42.550;23.120;2022-08-19T15:56:06;92440.38;;;37.82;35.09
39681;BME280;26327;42.550;23.120;2022-08-19T15:58:31;92397.44;;;36.72;36.28
39681;BME280;26327;42.550;23.120;2022-08-19T16:01:15;92385.28;;;35.99;40.57
39681;BME280;26327;42.550;23.120;2022-08-19T16:04:00;92389.84;;;35.39;39.33
39681;BME280;26327;42.550;23.120;2022-08-19T16:06:51;92477.28;;;35.47;45.57
39681;BME280;26327;42.550;23.120;2022-08-19T16:09:20;92462.88;;;34.78;46.04
39681;BME280;26327;42.550;23.120;2022-08-19T16:11:46;92499.31;;;34.72;50.59
39681;BME280;26327;42.550;23.120;2022-08-19T16:14:16;92482.75;;;34.25;50.79
39681;BME280;26327;42.550;23.120;2022-08-19T16:16:43;92406.72;;;33.20;55.03
39681;BME280;26327;42.550;23.120;2022-08-19T16:19:11;92466.03;;;33.32;57.06
39681;BME280;26327;42.550;23.120;2022-08-19T16:21:41;92494.69;;;32.86;58.71
39681;BME280;26327;42.550;23.120;2022-08-19T16:24:07;92354.91;;;31.63;60.21
39681;BME280;26327;42.550;23.120;2022-08-19T16:26:33;92498.53;;;32.39;64.40
39681;BME280;26327;42.550;23.120;2022-08-19T16:29:00;92476.66;;;32.02;61.67
39681;BME280;26327;42.550;23.120;2022-08-19T16:31:27;92496.50;;;31.80;62.54
39681;BME280;26327;42.550;23.120;2022-08-19T16:33:53;92417.22;;;31.14;58.01
39681;BME280;26327;42.550;23.120;2022-08-19T16:36:19;92489.41;;;31.41;62.43
39681;BME280;26327;42.550;23.120;2022-08-19T16:38:48;92491.31;;;31.23;58.53
39681;BME280;26327;42.550;23.120;2022-08-19T16:41:14;92482.56;;;30.92;57.99
39681;BME280;26327;42.550;23.120;2022-08-19T16:43:40;92381.44;;;30.10;65.03
39681;BME280;26327;42.550;23.120;2022-08-19T16:46:07;92439.53;;;30.40;65.99
39681;BME280;26327;42.550;23.120;2022-08-19T16:48:34;92461.44;;;30.33;62.44
39681;BME280;26327;42.550;23.120;2022-08-19T16:51:00;92494.84;;;30.27;59.21
39681;BME280;26327;42.550;23.120;2022-08-19T16:53:27;92483.28;;;29.87;63.01
39681;BME280;26327;42.550;23.120;2022-08-19T16:55:57;92472.69;;;29.51;65.84
39681;BME280;26327;42.550;23.120;2022-08-19T16:58:24;92410.88;;;28.80;68.63
39681;BME280;26327;42.550;23.120;2022-08-19T17:00:51;92370.22;;;28.20;71.13
39681;BME280;26327;42.550;23.120;2022-08-19T17:03:19;92481.22;;;28.67;73.32
39681;BME280;26327;42.550;23.120;2022-08-19T17:05:51;92445.63;;;28.17;73.59
39681;BME280;26327;42.550;23.120;2022-08-19T17:08:18;92498.44;;;28.20;74.17
39681;BME280;26327;42.550;23.120;2022-08-19T17:10:45;92437.28;;;27.64;74.73
39681;BME280;26327;42.550;23.120;2022-08-19T17:13:11;92517.78;;;27.84;70.83
39681;BME280;26327;42.550;23.120;2022-08-19T17:15:40;92503.25;;;27.44;73.99
39681;BME280;26327;42.550;23.120;2022-08-19T17:18:06;92499.50;;;27.26;74.53
39681;BME280;26327;42.550;23.120;2022-08-19T17:20:33;92450.22;;;26.67;77.74
39681;BME280;26327;42.550;23.120;2022-08-19T17:22:59;92513.47;;;26.81;78.56
39681;BME280;26327;42.550;23.120;2022-08-19T17:25:27;92467.41;;;26.38;80.14
39681;BME280;26327;42.550;23.120;2022-08-19T17:27:53;92485.28;;;26.32;82.08
39681;BME280;26327;42.550;23.120;2022-08-19T17:30:20;92449.38;;;25.82;79.70
39681;BME280;26327;42.550;23.120;2022-08-19T17:32:46;92461.59;;;25.54;79.79
39681;BME280;26327;42.550;23.120;2022-08-19T17:35:13;92502.78;;;25.66;76.99
39681;BME280;26327;42.550;23.120;2022-08-19T17:37:46;92520.69;;;25.51;76.23
39681;BME280;26327;42.550;23.120;2022-08-19T17:40:12;92532.91;;;25.52;82.12
39681;BME280;26327;42.550;23.120;2022-08-19T17:42:37;92442.97;;;24.91;80.63
39681;BME280;26327;42.550;23.120;2022-08-19T17:45:04;92515.91;;;25.19;82.12
39681;BME280;26327;42.550;23.120;2022-08-19T17:47:30;92537.97;;;25.19;83.08
39681;BME280;26327;42.550;23.120;2022-08-19T17:49:56;92508.72;;;24.75;82.80
39681;BME280;26327;42.550;23.120;2022-08-19T17:52:22;92411.03;;;24.07;84.28
39681;BME280;26327;42.550;23.120;2022-08-19T17:54:47;92543.03;;;24.66;84.91
39681;BME280;26327;42.550;23.120;2022-08-19T17:57:13;92472.16;;;23.87;83.91
39681;BME280;26327;42.550;23.120;2022-08-19T17:59:39;92524.38;;;24.07;82.73
39681;BME280;26327;42.550;23.120;2022-08-19T18:02:06;92503.47;;;23.85;86.79
39681;BME280;26327;42.550;23.120;2022-08-19T18:04:32;92470.09;;;23.69;85.64
39681;BME280;26327;42.550;23.120;2022-08-19T18:06:58;92554.13;;;23.99;87.21
39681;BME280;26327;42.550;23.120;2022-08-19T18:09:28;92466.41;;;23.39;88.10
39681;BME280;26327;42.550;23.120;2022-08-19T18:11:55;92515.19;;;23.64;86.27
39681;BME280;26327;42.550;23.120;2022-08-19T18:14:22;92403.84;;;22.62;88.98
39681;BME280;26327;42.550;23.120;2022-08-19T18:16:53;92532.16;;;23.32;90.65
39681;BME280;26327;42.550;23.120;2022-08-19T18:19:25;92341.56;;;21.98;91.78
39681;BME280;26327;42.550;23.120;2022-08-19T18:21:51;92483.91;;;23.00;92.09
39681;BME280;26327;42.550;23.120;2022-08-19T18:24:17;92473.31;;;22.84;92.08
39681;BME280;26327;42.550;23.120;2022-08-19T18:26:42;92546.47;;;23.21;91.92
39681;BME280;26327;42.550;23.120;2022-08-19T18:29:08;92530.81;;;22.99;92.68
39681;BME280;26327;42.550;23.120;2022-08-19T18:31:35;92558.63;;;23.07;94.09
39681;BME280;26327;42.550;23.120;2022-08-19T18:34:00;92520.47;;;22.82;94.88
39681;BME280;26327;42.550;23.120;2022-08-19T18:36:26;92550.41;;;23.03;93.71
39681;BME280;26327;42.550;23.120;2022-08-19T18:38:53;92540.56;;;22.78;94.71
39681;BME280;26327;42.550;23.120;2022-08-19T18:41:37;92559.84;;;22.69;94.46
39681;BME280;26327;42.550;23.120;2022-08-19T18:44:21;92504.41;;;22.32;95.34
39681;BME280;26327;42.550;23.120;2022-08-19T18:47:05;92439.63;;;21.77;96.87
39681;BME280;26327;42.550;23.120;2022-08-19T18:49:49;92558.44;;;22.46;96.12
39681;BME280;26327;42.550;23.120;2022-08-19T18:52:16;92566.16;;;22.52;93.54
39681;BME280;26327;42.550;23.120;2022-08-19T18:54:42;92519.94;;;22.18;96.37
39681;BME280;26327;42.550;23.120;2022-08-19T18:57:11;92579.91;;;22.49;95.41
39681;BME280;26327;42.550;23.120;2022-08-19T18:59:36;92528.91;;;22.12;95.75
39681;BME280;26327;42.550;23.120;2022-08-19T19:02:08;92538.09;;;21.99;96.44
39681;BME280;26327;42.550;23.120;2022-08-19T19:04:36;92473.31;;;21.54;95.21
39681;BME280;26327;42.550;23.120;2022-08-19T19:07:05;92502.44;;;21.59;96.28
39681;BME280;26327;42.550;23.120;2022-08-19T19:09:31;92583.50;;;21.81;96.71
39681;BME280;26327;42.550;23.120;2022-08-19T19:12:00;92605.56;;;22.02;97.83
39681;BME280;26327;42.550;23.120;2022-08-19T19:14:29;92601.59;;;21.99;97.16
39681;BME280;26327;42.550;23.120;2022-08-19T19:17:01;92550.34;;;21.68;96.03
39681;BME280;26327;42.550;23.120;2022-08-19T19:19:29;92592.19;;;21.76;97.29
39681;BME280;26327;42.550;23.120;2022-08-19T19:21:55;92622.44;;;21.90;97.40
39681;BME280;26327;42.550;23.120;2022-08-19T19:24:25;92513.81;;;21.23;98.14
39681;BME280;26327;42.550;23.120;2022-08-19T19:26:53;92623.72;;;21.83;98.91
39681;BME280;26327;42.550;23.120;2022-08-19T19:29:19;92627.38;;;21.77;97.35
39681;BME280;26327;42.550;23.120;2022-08-19T19:31:45;92578.69;;;21.41;98.10
39681;BME280;26327;42.550;23.120;2022-08-19T19:34:13;92610.53;;;21.56;97.59
39681;BME280;26327;42.550;23.120;2022-08-19T19:36:39;92631.19;;;21.59;98.37
39681;BME280;26327;42.550;23.120;2022-08-19T19:39:05;92630.66;;;21.62;97.95
39681;BME280;26327;42.550;23.120;2022-08-19T19:41:31;92513.63;;;20.75;98.63
39681;BME280;26327;42.550;23.120;2022-08-19T19:43:57;92597.22;;;21.19;97.92
39681;BME280;26327;42.550;23.120;2022-08-19T19:46:29;92643.44;;;21.38;98.48
39681;BME280;26327;42.550;23.120;2022-08-19T19:48:55;92465.78;;;20.18;98.90
39681;BME280;26327;42.550;23.120;2022-08-19T19:51:23;92554.38;;;20.58;99.11
39681;BME280;26327;42.550;23.120;2022-08-19T19:53:49;92543.88;;;20.63;99.23
39681;BME280;26327;42.550;23.120;2022-08-19T19:56:16;92581.31;;;20.82;99.69
39681;BME280;26327;42.550;23.120;2022-08-19T19:58:44;92600.44;;;20.94;99.19
39681;BME280;26327;42.550;23.120;2022-08-19T20:01:10;92620.97;;;21.14;97.18
39681;BME280;26327;42.550;23.120;2022-08-19T20:03:41;92475.09;;;20.26;95.87
39681;BME280;26327;42.550;23.120;2022-08-19T20:06:09;92555.63;;;20.77;95.17
39681;BME280;26327;42.550;23.120;2022-08-19T20:08:35;92527.34;;;20.46;97.12
39681;BME280;26327;42.550;23.120;2022-08-19T20:11:47;92464.75;;;19.75;96.62
39681;BME280;26327;42.550;23.120;2022-08-19T20:14:13;92635.38;;;20.79;98.85
39681;BME280;26327;42.550;23.120;2022-08-19T20:16:40;92546.22;;;20.16;99.09
39681;BME280;26327;42.550;23.120;2022-08-19T20:19:09;92510.88;;;19.95;98.49
39681;BME280;26327;42.550;23.120;2022-08-19T20:21:35;92524.69;;;20.02;98.37
39681;BME280;26327;42.550;23.120;2022-08-19T20:24:14;92373.81;;;19.12;98.83
39681;BME280;26327;42.550;23.120;2022-08-19T20:26:43;92510.34;;;19.93;99.31
39681;BME280;26327;42.550;23.120;2022-08-19T20:29:10;92652.47;;;20.93;99.28
39681;BME280;26327;42.550;23.120;2022-08-19T20:31:35;92500.28;;;19.90;98.70
39681;BME280;26327;42.550;23.120;2022-08-19T20:34:01;92636.81;;;20.65;99.71
39681;BME280;26327;42.550;23.120;2022-08-19T20:36:27;92450.38;;;19.44;99.68
39681;BME280;26327;42.550;23.120;2022-08-19T20:38:53;92628.47;;;20.73;98.63
39681;BME280;26327;42.550;23.120;2022-08-19T20:41:19;92661.38;;;20.87;99.67
39681;BME280;26327;42.550;23.120;2022-08-19T20:43:45;92524.56;;;19.92;98.98
39681;BME280;26327;42.550;23.120;2022-08-19T20:46:11;92632.03;;;20.62;99.73
39681;BME280;26327;42.550;23.120;2022-08-19T20:48:37;92649.16;;;20.59;99.41
39681;BME280;26327;42.550;23.120;2022-08-19T20:51:05;92650.50;;;20.62;99.76
39681;BME280;26327;42.550;23.120;2022-08-19T20:53:30;92605.41;;;20.41;98.94
39681;BME280;26327;42.550;23.120;2022-08-19T20:55:56;92574.91;;;19.90;98.63
39681;BME280;26327;42.550;23.120;2022-08-19T20:58:23;92597.56;;;20.08;99.16
39681;BME280;26327;42.550;23.120;2022-08-19T21:00:56;92595.75;;;19.92;100.00
39681;BME280;26327;42.550;23.120;2022-08-19T21:03:26;92667.94;;;20.41;100.00
39681;BME280;26327;42.550;23.120;2022-08-19T21:05:52;92518.72;;;19.51;100.00